Time;durP1;ratioP1;P1;durP2;ratioP2;P2;SDS_P1;SDS_P2;PMS_P1;PMS_P2;Temp;Humidity;BMP_temperature;BMP_pressure;BME280_temperature;BME280_humidity;BME280_pressure;Samples;Min_cycle;Max_cycle;Signal;HPM_P1;HPM_P2
2022/12/06 00:01:27;;;;;;;8.60;7.80;;;;;;;6.73;71.63;95536.50;5020860;28;20203;-71
2022/12/06 00:04:00;;;;;;;8.55;7.70;;;;;;;6.74;71.73;95533.41;5020772;28;20217;-71
2022/12/06 00:06:32;;;;;;;8.77;7.97;;;;;;;6.74;71.62;95529.88;5038363;28;20187;-71
2022/12/06 00:09:01;;;;;;;10.23;9.23;;;;;;;6.74;71.89;95527.13;5038121;28;20183;-71
2022/12/06 00:11:33;;;;;;;9.43;8.52;;;;;;;6.72;72.01;95524.72;5020600;28;20206;-71
2022/12/06 00:14:04;;;;;;;9.63;8.68;;;;;;;6.72;71.52;95526.66;5020924;28;20206;-71
2022/12/06 00:16:33;;;;;;;8.82;8.02;;;;;;;6.74;71.94;95529.88;5038207;28;20218;-71
2022/12/06 00:19:01;;;;;;;9.68;8.50;;;;;;;6.75;71.50;95521.34;5021289;28;20206;-71
2022/12/06 00:21:31;;;;;;;8.57;7.85;;;;;;;6.77;71.63;95521.03;5038392;28;20198;-71
2022/12/06 00:24:00;;;;;;;9.60;8.70;;;;;;;6.75;71.67;95524.09;5020872;28;20204;-71
2022/12/06 00:26:35;;;;;;;9.10;8.20;;;;;;;6.74;71.70;95530.69;5037692;28;20222;-71
2022/12/06 00:29:04;;;;;;;8.68;7.88;;;;;;;6.72;71.65;95527.47;5038138;28;20186;-71
2022/12/06 00:31:33;;;;;;;8.98;8.07;;;;;;;6.75;71.60;95528.75;5020829;28;20290;-71
2022/12/06 00:34:02;;;;;;;8.40;7.60;;;;;;;6.73;71.31;95528.25;5020722;28;20206;-71
2022/12/06 00:36:34;;;;;;;8.07;7.38;;;;;;;6.71;70.90;95528.56;5019424;28;20226;-71
2022/12/06 00:39:05;;;;;;;7.35;6.68;;;;;;;6.73;71.46;95525.53;5020781;28;20202;-71
2022/12/06 00:41:38;;;;;;;8.05;7.38;;;;;;;6.71;71.52;95528.56;5020949;28;20199;-71
2022/12/06 00:44:06;;;;;;;7.30;6.70;;;;;;;6.70;70.99;95535.19;5037964;28;20239;-71
2022/12/06 00:46:34;;;;;;;7.50;6.80;;;;;;;6.67;71.22;95526.78;5021516;28;20195;-71
2022/12/06 00:49:11;;;;;;;7.53;6.93;;;;;;;6.65;71.28;95520.81;5020612;28;20630;-71
2022/12/06 00:51:39;;;;;;;7.18;6.57;;;;;;;6.66;71.61;95522.44;5020242;28;20194;-71
2022/12/06 00:54:07;;;;;;;8.10;7.40;;;;;;;6.66;71.39;95517.75;5020866;28;20206;-71
2022/12/06 00:56:37;;;;;;;7.47;6.78;;;;;;;6.70;71.29;95515.19;5020376;28;20674;-71
2022/12/06 00:59:06;;;;;;;7.95;7.25;;;;;;;6.71;71.46;95509.38;5038658;28;20264;-71
2022/12/06 01:01:35;;;;;;;9.63;8.73;;;;;;;6.73;71.33;95507.13;5021064;28;20198;-71
2022/12/06 01:04:05;;;;;;;10.20;9.20;;;;;;;6.71;71.88;95506.63;5020563;28;20194;-71
2022/12/06 01:06:36;;;;;;;12.60;11.27;;;;;;;6.69;72.14;95510.84;5037933;28;20228;-71
2022/12/06 01:09:09;;;;;;;11.27;10.18;;;;;;;6.65;72.61;95507.94;5019920;28;20645;-71
2022/12/06 01:11:42;;;;;;;12.30;11.13;;;;;;;6.63;73.02;95503.88;5036246;28;20225;-71
2022/12/06 01:14:10;;;;;;;12.32;11.10;;;;;;;6.60;72.79;95504.50;5036781;28;20198;-71
2022/12/06 01:16:41;;;;;;;12.55;11.32;;;;;;;6.58;73.73;95496.63;5037226;28;20210;-71
2022/12/06 01:19:13;;;;;;;12.90;11.57;;;;;;;6.60;73.54;95497.09;5036991;28;20552;-71
2022/12/06 01:21:39;;;;;;;13.20;11.90;;;;;;;6.59;73.57;95492.75;5036869;28;20280;-71
2022/12/06 01:24:08;;;;;;;12.77;11.48;;;;;;;6.59;73.91;95498.22;5019936;28;20198;-71
2022/12/06 01:26:38;;;;;;;12.93;11.70;;;;;;;6.59;73.73;95490.00;5019640;28;20238;-71
2022/12/06 01:29:09;;;;;;;13.52;12.23;;;;;;;6.57;73.66;95488.69;5019595;28;20237;-71
2022/12/06 01:31:38;;;;;;;12.75;11.63;;;;;;;6.53;73.63;95491.25;5036564;28;20285;-71
2022/12/06 01:34:09;;;;;;;12.77;11.57;;;;;;;6.53;74.35;95485.78;5036377;28;20252;-71
2022/12/06 01:36:37;;;;;;;13.27;11.88;;;;;;;6.51;74.01;95485.31;5019293;28;20218;-71
2022/12/06 01:39:09;;;;;;;13.57;12.35;;;;;;;6.50;74.14;95479.03;5035716;28;20194;-71
2022/12/06 01:41:41;;;;;;;13.77;12.40;;;;;;;6.48;74.05;95484.00;5036412;28;20190;-71
2022/12/06 01:44:51;;;;;;;13.18;11.88;;;;;;;6.47;74.11;95479.66;5036268;28;20237;-71
2022/12/06 01:47:26;;;;;;;13.10;11.90;;;;;;;6.49;74.08;95485.59;5016123;28;20537;-71
2022/12/06 01:50:04;;;;;;;12.90;11.70;;;;;;;6.47;74.03;95487.88;5036799;28;20188;-71
2022/12/06 01:52:37;;;;;;;13.02;11.77;;;;;;;6.46;74.50;95485.44;5020287;28;20217;-71
2022/12/06 01:55:07;;;;;;;13.57;12.27;;;;;;;6.45;74.32;95484.63;5020193;28;20264;-71
2022/12/06 01:57:37;;;;;;;12.63;11.43;;;;;;;6.45;74.39;95481.88;5019984;28;20214;-71
2022/12/06 02:00:08;;;;;;;13.38;11.95;;;;;;;6.45;74.41;95478.34;5019925;28;20285;-71
2022/12/06 02:02:36;;;;;;;13.18;11.93;;;;;;;6.46;74.38;95472.56;5019589;28;20209;-71
2022/12/06 02:05:10;;;;;;;14.05;12.73;;;;;;;6.47;74.52;95470.63;5019657;28;20203;-71
2022/12/06 02:07:38;;;;;;;13.55;12.15;;;;;;;6.48;74.27;95475.78;5036583;28;20182;-71
2022/12/06 02:10:12;;;;;;;13.70;12.40;;;;;;;6.45;74.09;95467.38;5019358;28;20198;-71
2022/12/06 02:12:46;;;;;;;13.90;12.60;;;;;;;6.43;74.33;95467.72;5019525;28;20217;-71
2022/12/06 02:15:13;;;;;;;13.93;12.60;;;;;;;6.44;74.71;95465.78;5036652;28;20630;-71
2022/12/06 02:17:50;;;;;;;14.38;12.98;;;;;;;6.41;74.32;95464.47;5018779;28;20219;-71
2022/12/06 02:20:46;;;;;;;14.48;13.18;;;;;;;6.40;74.31;95460.13;5019039;28;20515;-71
2022/12/06 02:23:41;;;;;;;13.75;12.45;;;;;;;6.41;74.49;95461.72;5018766;28;20206;-71
2022/12/06 02:26:18;;;;;;;14.40;12.95;;;;;;;6.38;74.49;95456.88;5012102;28;20202;-71
2022/12/06 02:29:23;;;;;;;15.20;13.80;;;;;;;6.37;74.96;95458.00;4996179;28;20218;-71
2022/12/06 02:31:57;;;;;;;14.90;13.43;;;;;;;6.39;75.05;95457.69;4995800;28;20537;-71
2022/12/06 02:34:34;;;;;;;16.70;15.00;;;;;;;6.38;74.96;95450.59;4996350;28;20215;-71
2022/12/06 02:37:09;;;;;;;15.60;14.05;;;;;;;6.36;74.74;95445.44;4995983;28;20241;-71
2022/12/06 02:39:41;;;;;;;16.20;14.60;;;;;;;6.35;74.83;95443.00;5012794;28;20214;-71
2022/12/06 02:44:57;;;;;;;15.77;14.18;;;;;;;6.41;75.40;95444.47;5012400;28;20188;-71
2022/12/06 02:47:38;;;;;;;15.27;13.77;;;;;;;6.39;74.91;95435.75;4996281;28;20196;-71
2022/12/06 02:50:13;;;;;;;14.70;13.30;;;;;;;6.40;74.54;95442.88;4996575;28;20195;-71
2022/12/06 02:52:45;;;;;;;15.43;13.93;;;;;;;6.39;74.83;95438.50;4995527;28;20199;-71
2022/12/06 02:55:13;;;;;;;15.52;13.93;;;;;;;6.37;74.93;95432.53;4995771;28;20188;-71
2022/12/06 02:57:44;;;;;;;15.27;13.77;;;;;;;6.36;74.50;95439.97;4995468;28;20262;-71
2022/12/06 03:00:35;;;;;;;14.65;13.15;;;;;;;6.39;74.49;95433.03;4999510;28;20195;-71
2022/12/06 03:03:29;;;;;;;15.25;13.70;;;;;;;6.37;74.79;95435.28;4995653;28;20294;-71
2022/12/06 03:06:42;;;;;;;15.52;14.02;;;;;;;6.36;74.72;95431.75;5000014;28;20679;-71
2022/12/06 03:09:28;;;;;;;15.48;14.05;;;;;;;6.38;74.75;95432.22;4974965;28;20207;-71
2022/12/06 03:11:59;;;;;;;15.30;13.80;;;;;;;6.39;74.62;95441.22;4999076;28;20310;-71
2022/12/06 03:14:32;;;;;;;15.85;14.27;;;;;;;6.39;74.74;95441.22;4999720;28;20184;-72
2022/12/06 03:17:06;;;;;;;15.90;14.32;;;;;;;6.39;74.70;95439.34;4999705;28;20219;-71
2022/12/06 03:19:37;;;;;;;15.90;14.30;;;;;;;6.42;74.91;95438.66;4999186;28;20203;-72
2022/12/06 03:22:10;;;;;;;15.63;14.13;;;;;;;6.43;74.72;95426.59;4999282;28;20191;-72
2022/12/06 03:24:41;;;;;;;16.77;15.07;;;;;;;6.47;74.37;95422.09;4999133;28;20203;-72
2022/12/06 03:27:11;;;;;;;15.73;14.13;;;;;;;6.51;73.94;95427.75;5006472;28;20235;-72
2022/12/06 03:29:45;;;;;;;14.95;13.55;;;;;;;6.53;74.07;95422.75;5019670;28;20195;-72
2022/12/06 03:32:17;;;;;;;14.45;13.07;;;;;;;6.56;74.24;95424.06;5018746;28;20227;-72
2022/12/06 03:34:51;;;;;;;15.07;13.68;;;;;;;6.49;74.04;95419.84;5035350;28;20540;-72
2022/12/06 03:37:23;;;;;;;14.73;13.23;;;;;;;6.47;74.09;95413.06;5034886;28;20240;-71
2022/12/06 03:39:58;;;;;;;15.13;13.63;;;;;;;6.49;74.07;95417.09;5017971;28;20275;-71
2022/12/06 03:42:25;;;;;;;14.45;12.95;;;;;;;6.52;74.34;95421.13;5018672;28;20203;-71
2022/12/06 03:44:54;;;;;;;15.27;13.77;;;;;;;6.55;74.20;95416.97;5018446;28;20207;-71
2022/12/06 03:47:29;;;;;;;15.85;13.98;;;;;;;6.54;73.86;95413.41;5018527;28;20212;-71
2022/12/06 03:50:04;;;;;;;15.77;14.07;;;;;;;6.54;73.75;95413.41;5018445;28;20202;-71
2022/12/06 03:52:36;;;;;;;20.42;17.30;;;;;;;6.55;73.95;95412.28;5019449;28;20190;-71
2022/12/06 03:55:07;;;;;;;20.27;17.02;;;;;;;6.53;74.43;95410.97;5034864;28;20298;-71
2022/12/06 03:57:35;;;;;;;17.73;15.85;;;;;;;6.50;74.50;95406.97;5019109;28;20207;-71
2022/12/06 04:00:08;;;;;;;15.50;14.00;;;;;;;6.48;74.58;95404.53;5019070;28;20199;-71
2022/12/06 04:02:36;;;;;;;17.67;15.75;;;;;;;6.47;74.25;95402.91;5018371;28;20286;-71
2022/12/06 04:07:51;;;;;;;17.85;16.00;;;;;;;6.45;74.56;95410.63;5017850;28;20294;-71
2022/12/06 04:10:19;;;;;;;17.63;15.93;;;;;;;6.46;74.38;95414.19;5017665;28;20179;-71
2022/12/06 04:13:10;;;;;;;17.13;15.52;;;;;;;6.46;74.24;95406.78;5018714;28;20207;-71
2022/12/06 04:15:59;;;;;;;18.35;16.33;;;;;;;6.46;74.19;95414.19;5019722;28;20211;-71
2022/12/06 04:18:47;;;;;;;17.52;15.73;;;;;;;6.45;74.56;95418.06;5017489;28;20227;-71
2022/12/06 04:24:46;;;;;;;17.05;15.25;;;;;;;6.44;74.26;95410.97;5018430;28;20313;-71
2022/12/06 04:38:43;;;;;;;16.73;15.02;;;;;;;6.43;74.61;95412.09;5039237;28;20210;-74
2022/12/06 04:43:40;;;;;;;17.17;15.50;;;;;;;6.45;74.65;95416.13;5021982;28;20195;-74
2022/12/06 04:44:05;;;;;;;17.42;15.60;;;;;;;6.45;74.42;95409.84;5038304;28;20252;-74
2022/12/06 04:46:35;;;;;;;16.83;15.23;;;;;;;6.42;74.58;95408.53;5038997;28;20198;-72
2022/12/06 04:49:02;;;;;;;15.98;14.38;;;;;;;6.39;74.47;95408.34;5039869;28;20182;-73
2022/12/06 04:51:33;;;;;;;16.20;14.60;;;;;;;6.40;74.44;95407.25;5039571;28;20205;-73
2022/12/06 04:54:04;;;;;;;16.33;14.73;;;;;;;6.44;74.68;95408.22;5038877;28;20199;-73
2022/12/06 04:56:33;;;;;;;15.27;13.88;;;;;;;6.44;74.49;95411.78;5021618;28;20202;-73
2022/12/06 04:59:02;;;;;;;15.82;14.23;;;;;;;6.39;74.46;95411.94;5021092;28;20222;-73
2022/12/06 05:01:30;;;;;;;15.77;14.32;;;;;;;6.38;75.00;95409.50;5021246;28;20610;-73
2022/12/06 05:03:59;;;;;;;15.65;14.10;;;;;;;6.38;74.79;95409.50;5020905;28;20229;-73
2022/12/06 05:06:27;;;;;;;15.45;14.05;;;;;;;6.39;75.17;95408.34;5021754;28;20230;-73
2022/12/06 05:08:56;;;;;;;15.77;14.30;;;;;;;6.39;74.75;95411.94;5004827;28;20191;-73
2022/12/06 05:11:24;;;;;;;15.80;14.30;;;;;;;6.35;74.79;95412.88;5020884;28;20202;-73
2022/12/06 05:13:52;;;;;;;16.05;14.45;;;;;;;6.33;74.76;95404.97;5021240;28;20213;-73
2022/12/06 05:16:20;;;;;;;16.33;14.73;;;;;;;6.32;75.22;95402.53;5020965;28;20202;-73
2022/12/06 05:18:50;;;;;;;15.98;14.48;;;;;;;6.29;75.13;95404.00;5019590;28;20222;-70
2022/12/06 05:21:36;;;;;;;16.48;14.90;;;;;;;6.34;75.49;95403.84;5018877;28;20222;-70
2022/12/06 05:24:07;;;;;;;16.75;15.07;;;;;;;6.35;75.12;95402.72;5036414;28;20199;-71
2022/12/06 05:26:40;;;;;;;16.92;15.07;;;;;;;6.36;75.40;95403.53;5018798;28;20248;-70
2022/12/06 05:29:09;;;;;;;18.52;16.52;;;;;;;6.36;75.34;95412.56;5019167;28;20205;-70
2022/12/06 05:31:38;;;;;;;18.17;16.25;;;;;;;6.35;75.44;95410.13;5019006;28;20206;-72
2022/12/06 05:34:05;;;;;;;17.52;15.65;;;;;;;6.35;75.25;95407.38;5018598;28;20225;-71
2022/12/06 05:36:36;;;;;;;18.58;16.58;;;;;;;6.37;75.49;95410.63;5019072;28;20547;-71
2022/12/06 05:39:04;;;;;;;17.85;15.90;;;;;;;6.37;75.30;95416.09;5019199;28;20638;-72
2022/12/06 05:41:33;;;;;;;19.70;16.17;;;;;;;6.32;75.18;95414.31;5018800;28;20206;-71
2022/12/06 05:44:02;;;;;;;18.63;16.63;;;;;;;6.33;75.66;95407.72;5018858;28;20207;-71
2022/12/06 05:46:31;;;;;;;18.42;16.48;;;;;;;6.35;75.74;95407.38;5036035;28;20252;-72
2022/12/06 05:49:00;;;;;;;19.00;17.10;;;;;;;6.33;75.31;95399.50;5018748;28;20285;-72
2022/12/06 05:51:29;;;;;;;19.00;17.10;;;;;;;6.30;75.16;95394.66;5018764;28;20657;-71
2022/12/06 05:54:01;;;;;;;18.65;16.75;;;;;;;6.31;75.84;95389.97;5018833;28;20191;-71
2022/12/06 05:56:30;;;;;;;18.45;16.42;;;;;;;6.30;75.51;95391.91;5018520;28;20230;-71
2022/12/06 05:58:58;;;;;;;17.52;15.77;;;;;;;6.29;75.13;95392.25;5019092;28;20222;-72
2022/12/06 06:01:31;;;;;;;16.52;14.93;;;;;;;6.32;74.99;95391.56;5034512;28;20627;-71
2022/12/06 06:04:00;;;;;;;15.73;14.18;;;;;;;6.34;74.74;95395.63;5018568;28;20206;-71
2022/12/06 06:06:28;;;;;;;17.38;15.13;;;;;;;6.36;74.65;95393.38;5018035;28;20199;-71
2022/12/06 06:08:55;;;;;;;15.18;13.73;;;;;;;6.39;74.26;95391.91;5018873;28;20205;-72
2022/12/06 06:11:23;;;;;;;12.55;11.25;;;;;;;6.39;73.81;95395.50;5035459;28;20638;-71
2022/12/06 06:13:53;;;;;;;13.93;11.73;;;;;;;6.38;74.25;95393.84;5018362;28;20202;-72
2022/12/06 06:16:22;;;;;;;14.30;11.55;;;;;;;6.39;73.90;95405.63;5018146;28;20285;-71
2022/12/06 06:18:55;;;;;;;10.75;9.65;;;;;;;6.42;73.67;95405.78;5018065;28;20225;-71
2022/12/06 06:21:23;;;;;;;9.95;8.93;;;;;;;6.45;73.38;95409.84;5018130;28;20202;-71
2022/12/06 06:23:49;;;;;;;10.82;9.80;;;;;;;6.47;73.58;95418.56;5034913;28;20275;-71
2022/12/06 06:26:16;;;;;;;11.38;9.63;;;;;;;6.47;73.39;95411.13;5035151;28;20225;-71
2022/12/06 06:28:43;;;;;;;12.00;9.73;;;;;;;6.50;73.29;95409.72;5031167;28;20663;-71
2022/12/06 06:31:12;;;;;;;9.70;8.60;;;;;;;6.50;73.28;95402.28;5014736;28;20214;-71
2022/12/06 06:33:40;;;;;;;8.68;7.75;;;;;;;6.51;72.96;95411.31;5013926;28;20199;-71
2022/12/06 06:36:14;;;;;;;9.20;8.13;;;;;;;6.52;72.79;95401.97;5014545;28;20199;-72
2022/12/06 06:38:43;;;;;;;9.65;7.45;;;;;;;6.53;72.61;95405.50;5015470;28;20568;-72
2022/12/06 06:41:14;;;;;;;7.97;7.18;;;;;;;6.56;72.08;95402.13;5015605;28;20270;-72
2022/12/06 06:43:42;;;;;;;8.85;7.93;;;;;;;6.56;72.40;95394.72;5015546;28;20215;-71
2022/12/06 06:46:13;;;;;;;9.32;7.97;;;;;;;6.60;72.13;95395.69;5030977;28;20194;-71
2022/12/06 06:48:46;;;;;;;9.30;8.13;;;;;;;6.63;72.32;95395.03;5015126;28;20281;-71
2022/12/06 06:51:17;;;;;;;8.35;7.53;;;;;;;6.64;72.42;95395.84;5014487;28;20191;-71
2022/12/06 06:53:45;;;;;;;8.25;7.55;;;;;;;6.68;72.13;95394.06;5015393;28;20191;-71
2022/12/06 06:56:13;;;;;;;8.57;7.55;;;;;;;6.68;71.90;95392.16;5014270;28;20218;-71
2022/12/06 06:58:41;;;;;;;9.63;7.13;;;;;;;6.69;71.90;95391.03;5030920;28;20230;-71
2022/12/06 07:01:17;;;;;;;10.27;8.13;;;;;;;6.62;71.66;95390.69;5015018;28;20218;-71
2022/12/06 07:03:46;;;;;;;8.95;7.68;;;;;;;6.65;71.91;95395.53;5015005;28;20198;-72
2022/12/06 07:06:15;;;;;;;9.20;8.30;;;;;;;6.64;71.49;95395.84;5015146;28;20206;-71
2022/12/06 07:08:45;;;;;;;10.25;7.88;;;;;;;6.63;71.31;95395.03;5014425;28;20227;-72
2022/12/06 07:11:14;;;;;;;10.20;8.30;;;;;;;6.63;71.33;95396.97;5014559;28;20207;-71
2022/12/06 07:13:43;;;;;;;9.73;7.95;;;;;;;6.63;71.55;95397.78;5014559;28;20198;-72
2022/12/06 07:16:14;;;;;;;8.63;7.82;;;;;;;6.68;71.38;95385.84;5015055;28;20256;-71
2022/12/06 07:18:42;;;;;;;8.88;7.60;;;;;;;6.66;71.31;95388.13;5015063;28;20238;-71
2022/12/06 07:21:15;;;;;;;10.07;7.53;;;;;;;6.70;71.46;95389.91;5015295;28;20194;-71
2022/12/06 07:23:47;;;;;;;8.90;8.05;;;;;;;6.73;71.11;95386.53;5014172;28;20254;-71
2022/12/06 07:26:16;;;;;;;8.93;7.75;;;;;;;6.73;71.09;95397.50;5014712;28;20624;-71
2022/12/06 07:28:46;;;;;;;9.80;7.53;;;;;;;6.75;71.42;95394.41;5013788;28;20243;-71
2022/12/06 07:31:15;;;;;;;10.80;9.70;;;;;;;6.78;71.58;95392.97;5014094;28;20203;-71
2022/12/06 07:33:44;;;;;;;8.60;7.70;;;;;;;6.81;71.22;95386.84;5015123;28;20191;-71
2022/12/06 07:36:16;;;;;;;7.97;7.25;;;;;;;6.83;70.99;95385.41;5013739;28;20195;-71
2022/12/06 07:38:51;;;;;;;9.57;8.00;;;;;;;6.84;70.75;95389.75;5014834;28;20207;-71
2022/12/06 07:46:59;;;;;;;8.15;7.32;;;;;;;6.92;71.00;95375.25;5017610;28;20229;-71
2022/12/06 07:49:30;;;;;;;8.07;7.25;;;;;;;6.94;70.78;95378.47;5017641;28;20202;-71
2022/12/06 07:51:59;;;;;;;10.02;7.95;;;;;;;6.98;70.44;95384.13;5017609;28;20612;-71
2022/12/06 07:54:28;;;;;;;8.98;8.07;;;;;;;6.95;70.07;95384.78;5017311;28;20198;-71
2022/12/06 07:56:56;;;;;;;8.75;7.78;;;;;;;6.95;70.61;95387.50;5017649;28;20617;-71
2022/12/06 07:59:26;;;;;;;9.27;8.38;;;;;;;7.01;70.48;95388.97;5017803;28;20223;-71
2022/12/06 08:01:54;;;;;;;11.05;7.88;;;;;;;7.04;70.39;95382.00;5017469;28;20584;-71
2022/12/06 08:04:22;;;;;;;13.07;7.70;;;;;;;7.07;70.53;95395.91;5017483;28;20199;-71
2022/12/06 08:06:51;;;;;;;9.15;7.80;;;;;;;7.10;70.63;95395.25;5017024;28;20207;-71
2022/12/06 08:09:18;;;;;;;9.98;7.43;;;;;;;7.14;70.27;95392.66;5018372;28;20237;-72
2022/12/06 08:11:47;;;;;;;10.50;7.70;;;;;;;7.16;69.88;95402.19;5016902;28;20265;-71
2022/12/06 08:14:16;;;;;;;9.43;8.13;;;;;;;7.18;69.93;95383.47;5017993;28;20242;-71
2022/12/06 08:16:48;;;;;;;8.25;7.45;;;;;;;7.23;69.58;95382.50;5017654;28;20286;-71
2022/12/06 08:19:18;;;;;;;9.18;7.57;;;;;;;7.24;69.50;95375.88;5001227;28;20313;-71
2022/12/06 08:21:50;;;;;;;10.85;8.15;;;;;;;7.27;69.58;95383.47;5016941;28;20196;-72
2022/12/06 08:24:18;;;;;;;9.30;8.15;;;;;;;7.30;69.33;95376.50;5017050;28;20202;-71
2022/12/06 08:26:47;;;;;;;8.57;6.43;;;;;;;7.27;68.89;95380.72;5018441;28;20206;-71
2022/12/06 08:29:19;;;;;;;8.95;7.57;;;;;;;7.31;69.08;95372.66;5020431;28;20209;-71
2022/12/06 08:31:46;;;;;;;9.35;7.03;;;;;;;7.29;68.68;95375.72;5036696;28;20221;-71
2022/12/06 08:34:15;;;;;;;8.90;7.97;;;;;;;7.27;68.25;95372.50;5019977;28;20195;-71
2022/12/06 08:36:45;;;;;;;9.65;8.65;;;;;;;7.26;68.58;95379.09;5020765;28;20191;-71
2022/12/06 08:39:14;;;;;;;8.75;7.75;;;;;;;7.29;68.37;95378.44;5037274;28;20253;-71
2022/12/06 08:42:02;;;;;;;8.00;7.10;;;;;;;7.30;68.29;95384.75;5020303;28;20198;-71
2022/12/06 08:44:32;;;;;;;7.85;6.80;;;;;;;7.29;68.63;95381.19;5019884;28;20186;-71
2022/12/06 08:47:03;;;;;;;8.60;7.68;;;;;;;7.34;68.60;95378.31;5019589;28;20210;-72
2022/12/06 08:49:31;;;;;;;8.50;7.50;;;;;;;7.37;68.73;95374.09;5020171;28;20202;-71
2022/12/06 08:51:59;;;;;;;10.55;7.72;;;;;;;7.39;68.52;95375.38;5020056;28;20202;-72
2022/12/06 08:54:28;;;;;;;10.05;7.75;;;;;;;7.43;68.87;95375.53;5019566;28;20633;-71
2022/12/06 08:56:59;;;;;;;9.30;8.30;;;;;;;7.44;68.76;95377.16;5018955;28;20224;-72
2022/12/06 08:59:27;;;;;;;9.70;8.70;;;;;;;7.45;68.84;95368.59;5019788;28;20241;-72
2022/12/06 09:02:03;;;;;;;8.98;8.07;;;;;;;7.43;68.64;95372.78;5019690;28;20233;-72
2022/12/06 09:04:30;;;;;;;9.77;8.88;;;;;;;7.41;68.46;95369.59;5020007;28;20201;-71
2022/12/06 09:07:01;;;;;;;9.80;8.75;;;;;;;7.43;68.92;95364.56;5019706;28;20225;-71
2022/12/06 09:09:28;;;;;;;11.20;8.95;;;;;;;7.50;69.38;95364.06;5019648;28;20206;-71
2022/12/06 09:11:57;;;;;;;10.90;8.85;;;;;;;7.54;69.20;95346.63;5019295;28;20213;-71
2022/12/06 09:14:25;;;;;;;10.80;8.98;;;;;;;7.60;68.92;95341.78;5019352;28;20194;-71
2022/12/06 09:16:51;;;;;;;10.95;8.73;;;;;;;7.60;68.45;95331.59;5036823;28;20261;-71
2022/12/06 09:19:21;;;;;;;9.95;8.35;;;;;;;7.63;68.81;95330.94;5019379;28;20570;-71
2022/12/06 09:21:49;;;;;;;9.60;8.52;;;;;;;7.68;68.57;95322.50;5036317;28;20697;-71
2022/12/06 09:24:20;;;;;;;9.32;8.38;;;;;;;7.71;68.55;95321.88;5018859;28;20201;-71
2022/12/06 09:26:50;;;;;;;13.75;9.00;;;;;;;7.76;68.50;95320.06;5035930;28;20178;-71
2022/12/06 09:29:17;;;;;;;12.27;9.35;;;;;;;7.76;68.67;95317.31;5019136;28;20301;-71
2022/12/06 09:31:45;;;;;;;10.90;9.23;;;;;;;7.76;68.59;95306.34;5019388;28;20233;-71
2022/12/06 09:34:13;;;;;;;10.38;9.38;;;;;;;7.75;68.29;95291.00;5019102;28;20523;-71
2022/12/06 09:36:51;;;;;;;9.27;8.27;;;;;;;7.78;68.34;95285.66;5035434;28;20561;-71
2022/12/06 09:39:23;;;;;;;10.43;8.52;;;;;;;7.79;68.24;95272.75;5018804;28;20215;-71
2022/12/06 09:42:30;;;;;;;9.98;8.73;;;;;;;7.83;68.39;95276.44;5017234;28;20233;-71
2022/12/06 09:45:11;;;;;;;9.90;8.48;;;;;;;7.91;68.38;95272.81;5019049;28;20540;-71
2022/12/06 09:48:11;;;;;;;13.65;9.15;;;;;;;7.93;68.27;95276.06;5019118;28;20228;-71
2022/12/06 09:50:50;;;;;;;11.52;9.68;;;;;;;8.03;68.29;95280.38;5014493;28;20202;-71
2022/12/06 09:53:27;;;;;;;10.25;8.98;;;;;;;8.08;67.13;95272.75;5018941;28;20217;-71
2022/12/06 09:56:02;;;;;;;9.30;8.20;;;;;;;8.10;67.06;95269.69;5035675;28;20190;-71
2022/12/06 09:58:44;;;;;;;9.35;8.32;;;;;;;8.14;66.85;95263.19;5018488;28;20213;-71
2022/12/06 10:01:22;;;;;;;10.02;8.43;;;;;;;8.17;67.19;95265.25;5018320;28;20194;-71
2022/12/06 10:03:56;;;;;;;9.30;8.50;;;;;;;8.23;67.15;95263.13;5018435;28;20205;-71
2022/12/06 10:06:28;;;;;;;10.13;8.40;;;;;;;8.30;66.84;95257.09;5018118;28;20206;-71
2022/12/06 10:09:10;;;;;;;9.60;8.57;;;;;;;8.40;67.02;95246.53;5018651;28;20209;-71
2022/12/06 10:11:52;;;;;;;13.15;8.85;;;;;;;8.45;66.97;95248.28;5018387;28;20198;-71
2022/12/06 10:14:34;;;;;;;11.90;9.90;;;;;;;8.52;66.79;95245.81;5018201;28;20595;-71
2022/12/06 10:17:11;;;;;;;12.00;8.27;;;;;;;8.55;66.31;95238.84;5018614;28;20198;-71
2022/12/06 10:19:52;;;;;;;9.93;8.93;;;;;;;8.52;65.90;95232.06;5018238;28;20669;-71
2022/12/06 10:22:40;;;;;;;10.15;8.40;;;;;;;8.50;65.95;95225.31;5018448;28;20623;-71
2022/12/06 10:25:18;;;;;;;8.95;8.00;;;;;;;8.55;65.92;95214.91;5018277;28;20213;-71
2022/12/06 10:27:52;;;;;;;9.57;8.20;;;;;;;8.58;65.78;95221.69;5030825;28;20253;-71
2022/12/06 10:30:20;;;;;;;9.77;8.70;;;;;;;8.62;65.92;95219.84;5014379;28;20603;-71
2022/12/06 10:32:52;;;;;;;10.60;9.00;;;;;;;8.68;65.97;95221.28;5014585;28;20208;-71
2022/12/06 10:35:28;;;;;;;11.90;9.27;;;;;;;8.74;65.07;95213.59;5014762;28;20551;-71
2022/12/06 10:38:08;;;;;;;12.50;9.27;;;;;;;8.72;65.46;95216.69;5014549;28;20218;-71
2022/12/06 10:40:43;;;;;;;9.30;8.30;;;;;;;8.73;65.48;95221.06;5014714;28;20230;-71
2022/12/06 10:43:16;;;;;;;10.52;8.07;;;;;;;8.77;65.42;95216.47;5014814;28;20202;-71
2022/12/06 10:48:49;;;;;;;9.05;8.18;;;;;;;8.86;65.45;95203.47;5014240;28;20191;-71
2022/12/06 10:51:21;;;;;;;9.88;8.80;;;;;;;8.88;64.92;95203.91;5031415;28;20214;-71
2022/12/06 10:53:55;;;;;;;9.60;8.60;;;;;;;8.93;65.35;95200.13;5014640;28;20218;-71
2022/12/06 10:56:27;;;;;;;10.60;9.52;;;;;;;8.97;64.68;95198.34;5014194;28;20203;-71
2022/12/06 10:58:58;;;;;;;13.25;11.93;;;;;;;9.08;64.66;95193.22;5014658;28;20202;-71
2022/12/06 11:01:28;;;;;;;11.77;8.63;;;;;;;9.13;63.99;95176.47;5014384;28;20210;-71
2022/12/06 11:04:00;;;;;;;10.10;8.95;;;;;;;9.34;64.00;95168.94;5014471;28;20195;-71
2022/12/06 11:06:33;;;;;;;8.70;7.85;;;;;;;9.40;62.65;95164.81;5031691;28;20218;-71
2022/12/06 11:09:08;;;;;;;11.75;8.00;;;;;;;9.38;62.50;95163.56;5031191;28;20198;-71
2022/12/06 11:11:44;;;;;;;10.13;9.02;;;;;;;9.63;63.19;95158.88;5014554;28;20206;-71
2022/12/06 11:14:22;;;;;;;10.18;8.55;;;;;;;9.90;62.09;95154.59;5014392;28;20190;-71
2022/12/06 11:16:55;;;;;;;12.18;8.45;;;;;;;10.12;61.22;95154.09;5015547;28;20206;-71
2022/12/06 11:19:31;;;;;;;10.32;7.85;;;;;;;10.32;60.86;95148.81;5014465;28;20298;-71
2022/12/06 11:22:04;;;;;;;9.57;8.63;;;;;;;10.47;60.49;95147.25;5018060;28;20203;-71
2022/12/06 11:24:36;;;;;;;9.65;7.78;;;;;;;10.56;59.88;95145.13;5034512;28;20210;-71
2022/12/06 11:27:14;;;;;;;11.15;7.93;;;;;;;10.67;59.66;95137.97;5020984;28;20241;-71
2022/12/06 11:29:43;;;;;;;8.90;8.05;;;;;;;10.60;59.73;95141.34;5021387;28;20201;-71
2022/12/06 11:32:14;;;;;;;10.00;8.90;;;;;;;10.76;59.08;95135.88;5021235;28;20275;-71
2022/12/06 11:34:46;;;;;;;9.70;8.75;;;;;;;11.47;57.55;95136.09;5021912;28;20230;-71
2022/12/06 11:37:17;;;;;;;9.77;8.38;;;;;;;11.91;55.60;95136.00;5021130;28;20202;-71
2022/12/06 11:39:47;;;;;;;9.23;7.95;;;;;;;12.10;54.89;95141.59;5020903;28;20229;-71
2022/12/06 11:42:28;;;;;;;9.35;7.95;;;;;;;12.70;53.53;95138.50;5021115;28;20190;-71
2022/12/06 11:45:03;;;;;;;9.73;8.43;;;;;;;12.64;53.17;95138.00;5038132;28;20523;-71
2022/12/06 11:47:32;;;;;;;8.77;7.88;;;;;;;12.25;53.56;95137.16;5021054;28;20232;-71
2022/12/06 11:50:01;;;;;;;9.45;8.55;;;;;;;11.83;54.21;95123.94;5020953;28;20198;-71
2022/12/06 11:52:38;;;;;;;9.82;8.80;;;;;;;11.46;54.96;95124.25;5020986;28;20210;-71
2022/12/06 11:55:17;;;;;;;10.63;9.10;;;;;;;11.31;55.65;95125.06;5021302;28;20208;-71
2022/12/06 11:57:49;;;;;;;14.13;9.30;;;;;;;11.40;55.85;95122.13;5037271;28;20199;-71
2022/12/06 12:00:21;;;;;;;9.82;8.50;;;;;;;11.40;56.11;95117.44;5020715;28;20233;-71
2022/12/06 12:02:53;;;;;;;9.60;8.43;;;;;;;11.32;56.03;95112.84;5020974;28;20206;-71
2022/12/06 12:05:24;;;;;;;14.23;9.10;;;;;;;11.06;56.06;95108.66;5020498;28;20198;-71
2022/12/06 12:07:57;;;;;;;9.15;8.32;;;;;;;10.91;56.68;95112.22;5020693;28;20685;-71
2022/12/06 12:10:32;;;;;;;9.73;8.73;;;;;;;10.87;57.50;95113.28;5020453;28;20203;-71
2022/12/06 12:16:14;;;;;;;9.23;8.32;;;;;;;10.93;57.39;95112.69;5037561;28;20179;-71
2022/12/06 12:18:45;;;;;;;9.35;8.43;;;;;;;10.88;57.90;95090.84;5021021;28;20190;-71
2022/12/06 12:21:14;;;;;;;9.95;8.95;;;;;;;10.87;57.84;95093.97;5020562;28;20206;-71
2022/12/06 12:23:44;;;;;;;10.32;8.45;;;;;;;10.84;58.12;95085.22;5020455;28;20199;-72
2022/12/06 12:26:15;;;;;;;9.57;8.57;;;;;;;10.90;58.19;95079.47;5020348;28;20202;-72
2022/12/06 12:29:04;;;;;;;9.73;8.68;;;;;;;10.87;58.73;95088.44;5037886;28;20234;-71